sensor_id;sensor_type;location;lat;lon;timestamp;pressure;altitude;pressure_sealevel;temperature;humidity
49377;BME280;35253;34.688;33.040;2024-03-08T00:02:16;101178.38;;;14.67;100.00
49377;BME280;35253;34.688;33.040;2024-03-08T00:04:42;101178.97;;;14.46;100.00
49377;BME280;35253;34.688;33.040;2024-03-08T00:07:07;101163.69;;;14.60;100.00
49377;BME280;35253;34.688;33.040;2024-03-08T00:09:33;101169.13;;;14.59;100.00
49377;BME280;35253;34.688;33.040;2024-03-08T00:11:59;101159.03;;;14.62;100.00
49377;BME280;35253;34.688;33.040;2024-03-08T00:14:25;101158.84;;;14.65;100.00
49377;BME280;35253;34.688;33.040;2024-03-08T00:16:50;101161.19;;;14.57;100.00
49377;BME280;35253;34.688;33.040;2024-03-08T00:19:18;101153.78;;;14.21;100.00
49377;BME280;35253;34.688;33.040;2024-03-08T00:21:44;101152.22;;;14.17;100.00
49377;BME280;35253;34.688;33.040;2024-03-08T00:24:10;101148.19;;;14.24;100.00
49377;BME280;35253;34.688;33.040;2024-03-08T00:26:36;101147.41;;;14.49;100.00
49377;BME280;35253;34.688;33.040;2024-03-08T00:29:02;101142.38;;;14.57;100.00
49377;BME280;35253;34.688;33.040;2024-03-08T00:31:28;101138.53;;;14.61;100.00
49377;BME280;35253;34.688;33.040;2024-03-08T00:33:56;101133.31;;;14.72;100.00
49377;BME280;35253;34.688;33.040;2024-03-08T00:36:22;101141.44;;;14.58;100.00
49377;BME280;35253;34.688;33.040;2024-03-08T00:38:48;101142.63;;;14.27;100.00
49377;BME280;35253;34.688;33.040;2024-03-08T00:41:14;101142.94;;;13.96;100.00
49377;BME280;35253;34.688;33.040;2024-03-08T00:43:39;101144.34;;;13.75;100.00
49377;BME280;35253;34.688;33.040;2024-03-08T00:46:05;101145.75;;;13.80;100.00
49377;BME280;35253;34.688;33.040;2024-03-08T00:48:31;101138.25;;;13.99;100.00
49377;BME280;35253;34.688;33.040;2024-03-08T00:50:57;101138.06;;;14.15;100.00
49377;BME280;35253;34.688;33.040;2024-03-08T00:53:22;101127.38;;;14.28;100.00
49377;BME280;35253;34.688;33.040;2024-03-08T00:55:48;101127.78;;;14.22;100.00
49377;BME280;35253;34.688;33.040;2024-03-08T00:58:14;101122.72;;;14.44;100.00
49377;BME280;35253;34.688;33.040;2024-03-08T01:00:40;101118.53;;;14.40;100.00
49377;BME280;35253;34.688;33.040;2024-03-08T01:03:06;101112.00;;;14.44;100.00
49377;BME280;35253;34.688;33.040;2024-03-08T01:05:32;101117.72;;;14.52;100.00
49377;BME280;35253;34.688;33.040;2024-03-08T01:07:58;101119.75;;;14.61;100.00
49377;BME280;35253;34.688;33.040;2024-03-08T01:10:24;101127.94;;;14.72;100.00
49377;BME280;35253;34.688;33.040;2024-03-08T01:12:50;101130.09;;;14.93;100.00
49377;BME280;35253;34.688;33.040;2024-03-08T01:15:15;101117.66;;;14.92;100.00
49377;BME280;35253;34.688;33.040;2024-03-08T01:17:41;101125.16;;;14.86;100.00
49377;BME280;35253;34.688;33.040;2024-03-08T01:20:09;101118.28;;;14.95;100.00
49377;BME280;35253;34.688;33.040;2024-03-08T01:22:38;101127.06;;;14.84;100.00
49377;BME280;35253;34.688;33.040;2024-03-08T01:25:04;101122.88;;;14.93;100.00
49377;BME280;35253;34.688;33.040;2024-03-08T01:27:30;101119.34;;;14.93;100.00
49377;BME280;35253;34.688;33.040;2024-03-08T01:29:57;101124.28;;;14.99;100.00
49377;BME280;35253;34.688;33.040;2024-03-08T01:32:24;101127.94;;;14.98;100.00
49377;BME280;35253;34.688;33.040;2024-03-08T01:34:50;101127.72;;;15.01;100.00
49377;BME280;35253;34.688;33.040;2024-03-08T01:37:16;101124.84;;;15.04;100.00
49377;BME280;35253;34.688;33.040;2024-03-08T01:39:41;101128.47;;;15.03;100.00
49377;BME280;35253;34.688;33.040;2024-03-08T01:42:07;101132.56;;;15.08;100.00
49377;BME280;35253;34.688;33.040;2024-03-08T01:44:33;101133.22;;;14.99;100.00
49377;BME280;35253;34.688;33.040;2024-03-08T01:46:59;101138.03;;;14.81;100.00
49377;BME280;35253;34.688;33.040;2024-03-08T01:49:26;101137.22;;;14.41;100.00
49377;BME280;35253;34.688;33.040;2024-03-08T01:51:52;101138.53;;;14.61;100.00
49377;BME280;35253;34.688;33.040;2024-03-08T01:54:19;101137.56;;;14.62;100.00
49377;BME280;35253;34.688;33.040;2024-03-08T01:56:46;101132.03;;;14.65;100.00
49377;BME280;35253;34.688;33.040;2024-03-08T01:59:12;101137.44;;;14.12;100.00
49377;BME280;35253;34.688;33.040;2024-03-08T02:01:39;101138.72;;;14.19;100.00
49377;BME280;35253;34.688;33.040;2024-03-08T02:04:05;101131.53;;;14.46;100.00
49377;BME280;35253;34.688;33.040;2024-03-08T02:06:32;101133.47;;;14.44;100.00
49377;BME280;35253;34.688;33.040;2024-03-08T02:08:59;101128.00;;;14.58;100.00
49377;BME280;35253;34.688;33.040;2024-03-08T02:11:25;101130.44;;;14.36;100.00
49377;BME280;35253;34.688;33.040;2024-03-08T02:13:50;101125.41;;;14.44;100.00
49377;BME280;35253;34.688;33.040;2024-03-08T02:16:22;101127.75;;;14.36;100.00
49377;BME280;35253;34.688;33.040;2024-03-08T02:18:48;101128.69;;;14.35;100.00
49377;BME280;35253;34.688;33.040;2024-03-08T02:21:16;101131.75;;;14.16;100.00
49377;BME280;35253;34.688;33.040;2024-03-08T02:23:46;101132.31;;;13.94;100.00
49377;BME280;35253;34.688;33.040;2024-03-08T02:26:11;101128.63;;;14.10;100.00
49377;BME280;35253;34.688;33.040;2024-03-08T02:28:37;101134.88;;;14.23;100.00
49377;BME280;35253;34.688;33.040;2024-03-08T02:31:04;101136.09;;;14.05;100.00
49377;BME280;35253;34.688;33.040;2024-03-08T02:33:33;101140.66;;;13.90;100.00
49377;BME280;35253;34.688;33.040;2024-03-08T02:35:59;101129.13;;;13.75;100.00
49377;BME280;35253;34.688;33.040;2024-03-08T02:38:25;101134.56;;;13.74;100.00
49377;BME280;35253;34.688;33.040;2024-03-08T02:40:52;101135.06;;;13.66;100.00
49377;BME280;35253;34.688;33.040;2024-03-08T02:43:19;101137.59;;;13.55;100.00
49377;BME280;35253;34.688;33.040;2024-03-08T02:45:45;101147.16;;;13.17;100.00
49377;BME280;35253;34.688;33.040;2024-03-08T02:48:12;101142.19;;;13.39;100.00
49377;BME280;35253;34.688;33.040;2024-03-08T02:50:38;101139.69;;;13.50;100.00
49377;BME280;35253;34.688;33.040;2024-03-08T02:53:05;101134.56;;;13.47;100.00
49377;BME280;35253;34.688;33.040;2024-03-08T02:55:32;101143.97;;;13.67;100.00
49377;BME280;35253;34.688;33.040;2024-03-08T02:58:01;101146.72;;;13.79;100.00
49377;BME280;35253;34.688;33.040;2024-03-08T03:00:28;101148.59;;;13.91;100.00
49377;BME280;35253;34.688;33.040;2024-03-08T03:02:56;101159.78;;;13.43;100.00
49377;BME280;35253;34.688;33.040;2024-03-08T03:05:23;101168.09;;;13.52;100.00
49377;BME280;35253;34.688;33.040;2024-03-08T03:07:49;101162.34;;;13.73;100.00
49377;BME280;35253;34.688;33.040;2024-03-08T03:10:18;101169.34;;;13.61;100.00
49377;BME280;35253;34.688;33.040;2024-03-08T03:12:45;101162.09;;;13.49;100.00
49377;BME280;35253;34.688;33.040;2024-03-08T03:15:14;101160.72;;;13.56;100.00
49377;BME280;35253;34.688;33.040;2024-03-08T03:17:48;101160.13;;;13.79;100.00
49377;BME280;35253;34.688;33.040;2024-03-08T03:20:17;101163.97;;;13.75;100.00
49377;BME280;35253;34.688;33.040;2024-03-08T03:22:49;101157.00;;;13.73;100.00
49377;BME280;35253;34.688;33.040;2024-03-08T03:25:20;101155.91;;;13.75;100.00
49377;BME280;35253;34.688;33.040;2024-03-08T03:27:54;101152.06;;;13.79;100.00
49377;BME280;35253;34.688;33.040;2024-03-08T03:30:23;101151.16;;;13.66;100.00
49377;BME280;35253;34.688;33.040;2024-03-08T03:32:49;101145.63;;;13.55;100.00
49377;BME280;35253;34.688;33.040;2024-03-08T03:35:17;101157.28;;;13.68;100.00
49377;BME280;35253;34.688;33.040;2024-03-08T03:37:43;101158.09;;;13.83;100.00
49377;BME280;35253;34.688;33.040;2024-03-08T03:40:16;101157.94;;;13.72;100.00
49377;BME280;35253;34.688;33.040;2024-03-08T03:42:44;101159.28;;;13.65;100.00
49377;BME280;35253;34.688;33.040;2024-03-08T03:45:11;101152.66;;;13.70;100.00
49377;BME280;35253;34.688;33.040;2024-03-08T03:47:36;101149.03;;;13.71;100.00
49377;BME280;35253;34.688;33.040;2024-03-08T03:50:05;101147.13;;;13.73;100.00
49377;BME280;35253;34.688;33.040;2024-03-08T03:52:30;101148.66;;;13.77;100.00
49377;BME280;35253;34.688;33.040;2024-03-08T03:54:56;101144.34;;;13.75;100.00
49377;BME280;35253;34.688;33.040;2024-03-08T03:57:22;101151.22;;;13.79;100.00
49377;BME280;35253;34.688;33.040;2024-03-08T03:59:48;101147.78;;;13.77;100.00
49377;BME280;35253;34.688;33.040;2024-03-08T04:02:14;101154.06;;;13.90;100.00
49377;BME280;35253;34.688;33.040;2024-03-08T04:04:40;101154.94;;;13.90;100.00
49377;BME280;35253;34.688;33.040;2024-03-08T04:07:07;101144.59;;;13.84;100.00
49377;BME280;35253;34.688;33.040;2024-03-08T04:09:35;101159.72;;;13.85;100.00
49377;BME280;35253;34.688;33.040;2024-03-08T04:12:00;101160.28;;;13.90;100.00
49377;BME280;35253;34.688;33.040;2024-03-08T04:14:26;101167.56;;;13.88;100.00
49377;BME280;35253;34.688;33.040;2024-03-08T04:16:52;101163.81;;;13.91;100.00
49377;BME280;35253;34.688;33.040;2024-03-08T04:19:18;101166.41;;;13.92;100.00
49377;BME280;35253;34.688;33.040;2024-03-08T04:21:44;101169.72;;;13.96;100.00
49377;BME280;35253;34.688;33.040;2024-03-08T04:24:10;101164.72;;;14.04;100.00
49377;BME280;35253;34.688;33.040;2024-03-08T04:26:36;101175.78;;;13.99;100.00
49377;BME280;35253;34.688;33.040;2024-03-08T04:29:02;101178.81;;;14.08;100.00
49377;BME280;35253;34.688;33.040;2024-03-08T04:31:28;101177.03;;;14.21;100.00
49377;BME280;35253;34.688;33.040;2024-03-08T04:33:53;101183.16;;;14.23;100.00
49377;BME280;35253;34.688;33.040;2024-03-08T04:36:19;101184.97;;;14.36;100.00
49377;BME280;35253;34.688;33.040;2024-03-08T04:38:46;101191.75;;;14.42;100.00
49377;BME280;35253;34.688;33.040;2024-03-08T04:41:11;101193.47;;;14.43;100.00
49377;BME280;35253;34.688;33.040;2024-03-08T04:43:37;101198.22;;;14.52;100.00
49377;BME280;35253;34.688;33.040;2024-03-08T04:46:03;101196.41;;;14.12;100.00
49377;BME280;35253;34.688;33.040;2024-03-08T04:48:29;101181.16;;;13.99;100.00
49377;BME280;35253;34.688;33.040;2024-03-08T04:50:55;101189.38;;;14.37;100.00
49377;BME280;35253;34.688;33.040;2024-03-08T04:53:21;101187.81;;;14.60;100.00
49377;BME280;35253;34.688;33.040;2024-03-08T04:55:46;101193.19;;;14.07;100.00
49377;BME280;35253;34.688;33.040;2024-03-08T04:58:12;101207.63;;;13.77;100.00
49377;BME280;35253;34.688;33.040;2024-03-08T05:00:38;101210.56;;;14.14;100.00
49377;BME280;35253;34.688;33.040;2024-03-08T05:03:04;101205.47;;;14.37;100.00
49377;BME280;35253;34.688;33.040;2024-03-08T05:05:30;101201.72;;;14.53;100.00
49377;BME280;35253;34.688;33.040;2024-03-08T05:07:56;101199.75;;;14.69;100.00
49377;BME280;35253;34.688;33.040;2024-03-08T05:10:22;101198.16;;;14.79;100.00
49377;BME280;35253;34.688;33.040;2024-03-08T05:12:47;101202.25;;;14.97;100.00
49377;BME280;35253;34.688;33.040;2024-03-08T05:15:13;101202.38;;;15.08;100.00
49377;BME280;35253;34.688;33.040;2024-03-08T05:17:39;101202.47;;;14.81;100.00
49377;BME280;35253;34.688;33.040;2024-03-08T05:20:06;101215.81;;;15.08;100.00
49377;BME280;35253;34.688;33.040;2024-03-08T05:22:36;101220.97;;;15.24;100.00
49377;BME280;35253;34.688;33.040;2024-03-08T05:25:02;101218.59;;;15.19;100.00
49377;BME280;35253;34.688;33.040;2024-03-08T05:27:28;101207.66;;;15.35;100.00
49377;BME280;35253;34.688;33.040;2024-03-08T05:29:53;101217.97;;;15.41;100.00
49377;BME280;35253;34.688;33.040;2024-03-08T05:32:19;101218.84;;;15.54;100.00
49377;BME280;35253;34.688;33.040;2024-03-08T05:34:45;101210.66;;;15.68;100.00
49377;BME280;35253;34.688;33.040;2024-03-08T05:37:10;101213.44;;;15.80;100.00
49377;BME280;35253;34.688;33.040;2024-03-08T05:39:36;101205.69;;;15.88;100.00
49377;BME280;35253;34.688;33.040;2024-03-08T05:42:02;101210.59;;;15.94;100.00
49377;BME280;35253;34.688;33.040;2024-03-08T05:44:28;101213.38;;;16.05;100.00
49377;BME280;35253;34.688;33.040;2024-03-08T05:46:56;101214.88;;;16.09;100.00
49377;BME280;35253;34.688;33.040;2024-03-08T05:49:22;101218.59;;;15.83;100.00
49377;BME280;35253;34.688;33.040;2024-03-08T05:51:47;101224.84;;;15.83;100.00
49377;BME280;35253;34.688;33.040;2024-03-08T05:54:13;101224.03;;;15.94;100.00
49377;BME280;35253;34.688;33.040;2024-03-08T05:56:39;101223.66;;;16.11;100.00
49377;BME280;35253;34.688;33.040;2024-03-08T05:59:09;101227.69;;;16.29;100.00
49377;BME280;35253;34.688;33.040;2024-03-08T06:01:35;101230.13;;;16.08;100.00
49377;BME280;35253;34.688;33.040;2024-03-08T06:04:02;101232.50;;;16.13;100.00
49377;BME280;35253;34.688;33.040;2024-03-08T06:06:28;101239.06;;;16.45;100.00
49377;BME280;35253;34.688;33.040;2024-03-08T06:08:55;101235.53;;;16.56;100.00
49377;BME280;35253;34.688;33.040;2024-03-08T06:11:24;101240.47;;;16.38;100.00
49377;BME280;35253;34.688;33.040;2024-03-08T06:13:52;101236.97;;;16.25;100.00
49377;BME280;35253;34.688;33.040;2024-03-08T06:16:25;101240.94;;;16.56;100.00
49377;BME280;35253;34.688;33.040;2024-03-08T06:18:57;101240.69;;;16.72;100.00
49377;BME280;35253;34.688;33.040;2024-03-08T06:21:24;101247.31;;;16.79;100.00
49377;BME280;35253;34.688;33.040;2024-03-08T06:23:53;101252.69;;;16.79;100.00
49377;BME280;35253;34.688;33.040;2024-03-08T06:26:25;101259.56;;;16.83;100.00
49377;BME280;35253;34.688;33.040;2024-03-08T06:28:54;101257.28;;;16.65;100.00
49377;BME280;35253;34.688;33.040;2024-03-08T06:31:19;101263.97;;;16.60;100.00
49377;BME280;35253;34.688;33.040;2024-03-08T06:33:45;101261.59;;;16.55;100.00
49377;BME280;35253;34.688;33.040;2024-03-08T06:36:11;101268.44;;;16.72;100.00
49377;BME280;35253;34.688;33.040;2024-03-08T06:38:40;101272.91;;;16.84;100.00
49377;BME280;35253;34.688;33.040;2024-03-08T06:41:11;101270.66;;;16.67;100.00
49377;BME280;35253;34.688;33.040;2024-03-08T06:43:43;101260.56;;;16.58;100.00
49377;BME280;35253;34.688;33.040;2024-03-08T06:46:09;101264.94;;;16.83;100.00
49377;BME280;35253;34.688;33.040;2024-03-08T06:48:35;101264.00;;;16.95;100.00
49377;BME280;35253;34.688;33.040;2024-03-08T06:51:02;101266.63;;;17.07;100.00
49377;BME280;35253;34.688;33.040;2024-03-08T06:53:28;101264.78;;;17.08;100.00
49377;BME280;35253;34.688;33.040;2024-03-08T06:55:54;101259.41;;;17.08;100.00
49377;BME280;35253;34.688;33.040;2024-03-08T06:58:20;101260.31;;;17.31;100.00
49377;BME280;35253;34.688;33.040;2024-03-08T07:00:45;101258.72;;;17.28;100.00
49377;BME280;35253;34.688;33.040;2024-03-08T07:03:12;101263.66;;;17.45;100.00
49377;BME280;35253;34.688;33.040;2024-03-08T07:05:42;101264.53;;;17.46;100.00
49377;BME280;35253;34.688;33.040;2024-03-08T07:08:08;101254.56;;;17.46;100.00
49377;BME280;35253;34.688;33.040;2024-03-08T07:10:33;101245.75;;;17.55;100.00
49377;BME280;35253;34.688;33.040;2024-03-08T07:13:00;101247.63;;;17.55;100.00
49377;BME280;35253;34.688;33.040;2024-03-08T07:15:27;101250.53;;;17.41;100.00
49377;BME280;35253;34.688;33.040;2024-03-08T07:17:54;101249.78;;;17.28;100.00
49377;BME280;35253;34.688;33.040;2024-03-08T07:20:21;101247.69;;;17.42;100.00
49377;BME280;35253;34.688;33.040;2024-03-08T07:22:47;101241.84;;;17.48;100.00
49377;BME280;35253;34.688;33.040;2024-03-08T07:25:14;101241.13;;;17.57;100.00
49377;BME280;35253;34.688;33.040;2024-03-08T07:27:42;101231.66;;;17.52;100.00
49377;BME280;35253;34.688;33.040;2024-03-08T07:30:09;101238.44;;;17.69;100.00
49377;BME280;35253;34.688;33.040;2024-03-08T07:32:35;101243.84;;;17.69;100.00
49377;BME280;35253;34.688;33.040;2024-03-08T07:35:01;101239.94;;;17.62;100.00
49377;BME280;35253;34.688;33.040;2024-03-08T07:40:09;101246.03;;;17.86;100.00
49377;BME280;35253;34.688;33.040;2024-03-08T07:42:43;101246.69;;;17.89;100.00
49377;BME280;35253;34.688;33.040;2024-03-08T07:45:09;101244.47;;;17.94;100.00
49377;BME280;35253;34.688;33.040;2024-03-08T07:47:35;101231.44;;;17.99;100.00
49377;BME280;35253;34.688;33.040;2024-03-08T07:50:02;101241.88;;;17.93;100.00
49377;BME280;35253;34.688;33.040;2024-03-08T07:52:27;101241.13;;;18.02;100.00
49377;BME280;35253;34.688;33.040;2024-03-08T07:54:53;101248.25;;;18.03;100.00
49377;BME280;35253;34.688;33.040;2024-03-08T07:57:19;101240.88;;;18.05;100.00
49377;BME280;35253;34.688;33.040;2024-03-08T07:59:46;101238.66;;;18.10;100.00
49377;BME280;35253;34.688;33.040;2024-03-08T08:02:11;101235.00;;;18.11;100.00
49377;BME280;35253;34.688;33.040;2024-03-08T08:04:37;101232.09;;;18.35;100.00
49377;BME280;35253;34.688;33.040;2024-03-08T08:07:04;101240.13;;;18.14;100.00
49377;BME280;35253;34.688;33.040;2024-03-08T08:09:29;101238.44;;;18.02;100.00
49377;BME280;35253;34.688;33.040;2024-03-08T08:12:00;101245.69;;;18.01;100.00
49377;BME280;35253;34.688;33.040;2024-03-08T08:14:28;101245.22;;;17.85;100.00
49377;BME280;35253;34.688;33.040;2024-03-08T08:16:54;101241.38;;;17.99;100.00
49377;BME280;35253;34.688;33.040;2024-03-08T08:19:22;101233.75;;;18.15;100.00
49377;BME280;35253;34.688;33.040;2024-03-08T08:21:48;101236.72;;;18.12;100.00
49377;BME280;35253;34.688;33.040;2024-03-08T08:24:14;101243.59;;;18.16;100.00
49377;BME280;35253;34.688;33.040;2024-03-08T08:26:40;101226.75;;;18.13;100.00
49377;BME280;35253;34.688;33.040;2024-03-08T08:29:07;101227.47;;;18.26;100.00
49377;BME280;35253;34.688;33.040;2024-03-08T08:31:33;101222.00;;;18.16;100.00
49377;BME280;35253;34.688;33.040;2024-03-08T08:33:59;101221.00;;;17.95;100.00
49377;BME280;35253;34.688;33.040;2024-03-08T08:36:25;101207.38;;;18.19;100.00
49377;BME280;35253;34.688;33.040;2024-03-08T08:38:51;101212.72;;;18.30;100.00
49377;BME280;35253;34.688;33.040;2024-03-08T08:41:19;101203.75;;;18.40;100.00
49377;BME280;35253;34.688;33.040;2024-03-08T08:43:47;101206.66;;;18.60;100.00
49377;BME280;35253;34.688;33.040;2024-03-08T08:46:12;101203.16;;;18.37;100.00
49377;BME280;35253;34.688;33.040;2024-03-08T08:48:41;101208.38;;;18.50;100.00
49377;BME280;35253;34.688;33.040;2024-03-08T08:51:09;101212.66;;;18.63;100.00
49377;BME280;35253;34.688;33.040;2024-03-08T08:53:38;101203.97;;;18.48;100.00
49377;BME280;35253;34.688;33.040;2024-03-08T08:56:06;101209.16;;;18.40;100.00
49377;BME280;35253;34.688;33.040;2024-03-08T08:58:33;101211.72;;;18.42;100.00
49377;BME280;35253;34.688;33.040;2024-03-08T09:00:59;101207.03;;;18.55;100.00
49377;BME280;35253;34.688;33.040;2024-03-08T09:03:25;101213.25;;;18.67;100.00
49377;BME280;35253;34.688;33.040;2024-03-08T09:05:52;101203.69;;;18.63;100.00
49377;BME280;35253;34.688;33.040;2024-03-08T09:08:18;101195.78;;;18.71;100.00
49377;BME280;35253;34.688;33.040;2024-03-08T09:10:44;101209.38;;;18.80;100.00
49377;BME280;35253;34.688;33.040;2024-03-08T09:13:10;101209.41;;;18.69;100.00
49377;BME280;35253;34.688;33.040;2024-03-08T09:15:36;101191.84;;;18.75;100.00
49377;BME280;35253;34.688;33.040;2024-03-08T09:18:06;101194.84;;;18.61;100.00
49377;BME280;35253;34.688;33.040;2024-03-08T09:20:32;101204.19;;;18.57;100.00
49377;BME280;35253;34.688;33.040;2024-03-08T09:22:58;101200.88;;;18.64;100.00
49377;BME280;35253;34.688;33.040;2024-03-08T09:25:23;101195.28;;;18.77;100.00
49377;BME280;35253;34.688;33.040;2024-03-08T09:27:49;101191.59;;;18.78;100.00
49377;BME280;35253;34.688;33.040;2024-03-08T09:30:15;101197.84;;;18.78;100.00
49377;BME280;35253;34.688;33.040;2024-03-08T09:32:41;101195.69;;;18.93;100.00
49377;BME280;35253;34.688;33.040;2024-03-08T09:35:09;101192.38;;;19.10;100.00
49377;BME280;35253;34.688;33.040;2024-03-08T09:37:35;101184.34;;;19.20;100.00
49377;BME280;35253;34.688;33.040;2024-03-08T09:40:01;101187.31;;;19.17;100.00
49377;BME280;35253;34.688;33.040;2024-03-08T09:42:30;101193.25;;;18.90;100.00
49377;BME280;35253;34.688;33.040;2024-03-08T09:44:57;101172.94;;;19.16;100.00
49377;BME280;35253;34.688;33.040;2024-03-08T09:47:24;101178.84;;;19.52;100.00
49377;BME280;35253;34.688;33.040;2024-03-08T09:49:54;101169.03;;;19.09;100.00
49377;BME280;35253;34.688;33.040;2024-03-08T09:52:20;101170.88;;;19.29;100.00
49377;BME280;35253;34.688;33.040;2024-03-08T09:54:46;101180.06;;;19.17;100.00
49377;BME280;35253;34.688;33.040;2024-03-08T09:57:12;101175.72;;;19.35;100.00
49377;BME280;35253;34.688;33.040;2024-03-08T09:59:37;101175.97;;;19.44;100.00
49377;BME280;35253;34.688;33.040;2024-03-08T10:02:03;101172.88;;;19.58;100.00
49377;BME280;35253;34.688;33.040;2024-03-08T10:04:30;101162.81;;;19.39;100.00
49377;BME280;35253;34.688;33.040;2024-03-08T10:06:58;101165.19;;;19.32;100.00
49377;BME280;35253;34.688;33.040;2024-03-08T10:09:25;101161.69;;;19.72;100.00
49377;BME280;35253;34.688;33.040;2024-03-08T10:11:56;101160.41;;;19.76;100.00
49377;BME280;35253;34.688;33.040;2024-03-08T10:14:25;101167.59;;;19.35;100.00
49377;BME280;35253;34.688;33.040;2024-03-08T10:16:54;101156.38;;;19.61;100.00
49377;BME280;35253;34.688;33.040;2024-03-08T10:19:25;101161.22;;;19.67;100.00
49377;BME280;35253;34.688;33.040;2024-03-08T10:21:52;101163.31;;;20.03;100.00
49377;BME280;35253;34.688;33.040;2024-03-08T10:24:22;101160.44;;;19.86;100.00
49377;BME280;35253;34.688;33.040;2024-03-08T10:26:52;101161.75;;;19.91;100.00
49377;BME280;35253;34.688;33.040;2024-03-08T10:29:18;101150.56;;;19.75;100.00
49377;BME280;35253;34.688;33.040;2024-03-08T10:31:44;101157.81;;;19.65;100.00
49377;BME280;35253;34.688;33.040;2024-03-08T10:34:10;101144.91;;;19.78;100.00
49377;BME280;35253;34.688;33.040;2024-03-08T10:36:36;101146.06;;;19.85;100.00
49377;BME280;35253;34.688;33.040;2024-03-08T10:39:03;101146.19;;;19.93;100.00
49377;BME280;35253;34.688;33.040;2024-03-08T10:41:33;101144.22;;;19.95;100.00
49377;BME280;35253;34.688;33.040;2024-03-08T10:44:25;101148.69;;;19.66;100.00
49377;BME280;35253;34.688;33.040;2024-03-08T10:47:17;101134.09;;;19.97;100.00
49377;BME280;35253;34.688;33.040;2024-03-08T10:50:11;101145.97;;;19.66;100.00
49377;BME280;35253;34.688;33.040;2024-03-08T10:52:49;101135.09;;;19.87;100.00
49377;BME280;35253;34.688;33.040;2024-03-08T10:55:16;101129.88;;;20.14;100.00
49377;BME280;35253;34.688;33.040;2024-03-08T10:57:43;101140.31;;;20.47;100.00
49377;BME280;35253;34.688;33.040;2024-03-08T11:00:10;101136.69;;;20.27;100.00
49377;BME280;35253;34.688;33.040;2024-03-08T11:02:36;101130.81;;;19.94;100.00
49377;BME280;35253;34.688;33.040;2024-03-08T11:05:03;101122.06;;;19.61;100.00
49377;BME280;35253;34.688;33.040;2024-03-08T11:07:34;101124.88;;;20.00;100.00
49377;BME280;35253;34.688;33.040;2024-03-08T11:10:03;101123.75;;;20.21;100.00
49377;BME280;35253;34.688;33.040;2024-03-08T11:12:37;101114.50;;;20.53;100.00
49377;BME280;35253;34.688;33.040;2024-03-08T11:15:11;101119.03;;;20.72;100.00
49377;BME280;35253;34.688;33.040;2024-03-08T11:20:24;101114.50;;;20.34;100.00
49377;BME280;35253;34.688;33.040;2024-03-08T11:22:54;101117.66;;;20.39;100.00
49377;BME280;35253;34.688;33.040;2024-03-08T11:25:37;101120.91;;;20.13;100.00
49377;BME280;35253;34.688;33.040;2024-03-08T11:28:13;101111.06;;;20.32;100.00
49377;BME280;35253;34.688;33.040;2024-03-08T11:30:46;101100.81;;;20.54;100.00
49377;BME280;35253;34.688;33.040;2024-03-08T11:33:15;101102.22;;;20.68;100.00
49377;BME280;35253;34.688;33.040;2024-03-08T11:35:42;101107.06;;;20.55;100.00
49377;BME280;35253;34.688;33.040;2024-03-08T11:38:11;101106.19;;;20.83;100.00
49377;BME280;35253;34.688;33.040;2024-03-08T11:40:39;101095.25;;;20.37;100.00
49377;BME280;35253;34.688;33.040;2024-03-08T11:43:05;101100.66;;;20.46;100.00
49377;BME280;35253;34.688;33.040;2024-03-08T11:45:36;101115.06;;;20.66;100.00
49377;BME280;35253;34.688;33.040;2024-03-08T11:48:03;101102.06;;;20.79;100.00
49377;BME280;35253;34.688;33.040;2024-03-08T11:50:29;101109.44;;;20.96;100.00
49377;BME280;35253;34.688;33.040;2024-03-08T11:53:01;101105.34;;;20.54;100.00
49377;BME280;35253;34.688;33.040;2024-03-08T11:55:27;101094.53;;;20.54;100.00
49377;BME280;35253;34.688;33.040;2024-03-08T11:58:00;101097.28;;;20.35;100.00
49377;BME280;35253;34.688;33.040;2024-03-08T12:00:26;101107.06;;;20.16;100.00
49377;BME280;35253;34.688;33.040;2024-03-08T12:03:02;101096.84;;;20.49;100.00
49377;BME280;35253;34.688;33.040;2024-03-08T12:05:28;101095.38;;;20.25;100.00
49377;BME280;35253;34.688;33.040;2024-03-08T12:07:58;101087.63;;;20.88;100.00
49377;BME280;35253;34.688;33.040;2024-03-08T12:10:24;101100.25;;;20.51;100.00
49377;BME280;35253;34.688;33.040;2024-03-08T12:12:54;101094.06;;;20.78;100.00
49377;BME280;35253;34.688;33.040;2024-03-08T12:15:23;101087.63;;;20.88;100.00
49377;BME280;35253;34.688;33.040;2024-03-08T12:17:51;101086.25;;;20.55;100.00
49377;BME280;35253;34.688;33.040;2024-03-08T12:20:19;101095.97;;;20.39;100.00
49377;BME280;35253;34.688;33.040;2024-03-08T12:22:47;101089.25;;;20.23;100.00
49377;BME280;35253;34.688;33.040;2024-03-08T12:25:14;101092.78;;;20.14;100.00
49377;BME280;35253;34.688;33.040;2024-03-08T12:27:41;101087.94;;;20.27;100.00
49377;BME280;35253;34.688;33.040;2024-03-08T12:30:18;101085.44;;;20.36;100.00
49377;BME280;35253;34.688;33.040;2024-03-08T12:32:58;101080.69;;;20.18;100.00
49377;BME280;35253;34.688;33.040;2024-03-08T12:35:29;101085.56;;;20.44;100.00
49377;BME280;35253;34.688;33.040;2024-03-08T12:37:59;101082.25;;;20.11;100.00